sensor_id;sensor_type;location;lat;lon;timestamp;pressure;altitude;pressure_sealevel;temperature;humidity
44697;BME280;57264;47.480;19.354;2023-03-01T00:02:20;100187.06;;;2.14;68.06
44697;BME280;57264;47.480;19.354;2023-03-01T00:04:46;100186.25;;;2.14;67.31
44697;BME280;57264;47.480;19.354;2023-03-01T00:07:12;100188.19;;;2.21;67.95
44697;BME280;57264;47.480;19.354;2023-03-01T00:09:38;100185.03;;;2.18;67.31
44697;BME280;57264;47.480;19.354;2023-03-01T00:12:04;100183.53;;;2.15;67.47
44697;BME280;57264;47.480;19.354;2023-03-01T00:14:29;100193.34;;;2.12;68.12
44697;BME280;57264;47.480;19.354;2023-03-01T00:16:55;100189.09;;;2.11;67.88
44697;BME280;57264;47.480;19.354;2023-03-01T00:19:20;100193.91;;;2.15;67.71
44697;BME280;57264;47.480;19.354;2023-03-01T00:21:47;100196.88;;;2.11;67.81
44697;BME280;57264;47.480;19.354;2023-03-01T00:24:13;100194.72;;;2.16;67.45
44697;BME280;57264;47.480;19.354;2023-03-01T00:26:39;100191.69;;;2.11;67.71
44697;BME280;57264;47.480;19.354;2023-03-01T00:29:05;100190.03;;;2.10;67.55
44697;BME280;57264;47.480;19.354;2023-03-01T00:31:32;100192.63;;;2.10;67.61
44697;BME280;57264;47.480;19.354;2023-03-01T00:34:04;100191.38;;;2.04;68.26
44697;BME280;57264;47.480;19.354;2023-03-01T00:36:32;100187.34;;;2.11;67.88
44697;BME280;57264;47.480;19.354;2023-03-01T00:38:58;100191.13;;;2.07;68.33
44697;BME280;57264;47.480;19.354;2023-03-01T00:41:24;100186.50;;;2.11;68.47
44697;BME280;57264;47.480;19.354;2023-03-01T00:43:52;100189.22;;;2.09;67.87
44697;BME280;57264;47.480;19.354;2023-03-01T00:46:22;100191.69;;;2.11;68.23
44697;BME280;57264;47.480;19.354;2023-03-01T00:48:49;100192.50;;;2.11;68.27
44697;BME280;57264;47.480;19.354;2023-03-01T00:51:18;100192.63;;;2.10;69.38
44697;BME280;57264;47.480;19.354;2023-03-01T00:53:44;100189.47;;;2.06;70.42
44697;BME280;57264;47.480;19.354;2023-03-01T00:56:12;100191.13;;;2.07;69.28
44697;BME280;57264;47.480;19.354;2023-03-01T00:58:38;100191.97;;;2.17;68.34
44697;BME280;57264;47.480;19.354;2023-03-01T01:01:12;100202.03;;;2.31;67.66
44697;BME280;57264;47.480;19.354;2023-03-01T01:06:22;100190.84;;;2.31;66.91
44697;BME280;57264;47.480;19.354;2023-03-01T01:08:49;100188.38;;;2.29;67.76
44697;BME280;57264;47.480;19.354;2023-03-01T01:11:15;100190.94;;;2.29;67.35
44697;BME280;57264;47.480;19.354;2023-03-01T01:13:44;100190.56;;;2.34;67.05
44697;BME280;57264;47.480;19.354;2023-03-01T01:16:10;100187.69;;;2.27;67.61
44697;BME280;57264;47.480;19.354;2023-03-01T01:18:36;100176.88;;;2.22;67.50
44697;BME280;57264;47.480;19.354;2023-03-01T01:21:07;100178.91;;;2.19;67.48
44697;BME280;57264;47.480;19.354;2023-03-01T01:23:33;100169.66;;;2.16;68.01
44697;BME280;57264;47.480;19.354;2023-03-01T01:26:18;100174.94;;;2.15;68.18
44697;BME280;57264;47.480;19.354;2023-03-01T01:28:44;100170.41;;;2.07;68.62
44697;BME280;57264;47.480;19.354;2023-03-01T01:31:10;100163.59;;;2.06;68.81
44697;BME280;57264;47.480;19.354;2023-03-01T01:33:36;100154.31;;;2.04;68.44
44697;BME280;57264;47.480;19.354;2023-03-01T01:36:05;100151.56;;;2.05;68.50
44697;BME280;57264;47.480;19.354;2023-03-01T01:38:31;100157.31;;;2.09;68.76
44697;BME280;57264;47.480;19.354;2023-03-01T01:40:56;100156.94;;;2.13;68.49
44697;BME280;57264;47.480;19.354;2023-03-01T01:43:28;100144.25;;;2.10;68.03
44697;BME280;57264;47.480;19.354;2023-03-01T01:46:05;100145.38;;;2.17;68.35
44697;BME280;57264;47.480;19.354;2023-03-01T01:48:39;100146.25;;;2.37;68.34
44697;BME280;57264;47.480;19.354;2023-03-01T01:51:09;100144.09;;;2.42;68.06
44697;BME280;57264;47.480;19.354;2023-03-01T01:53:36;100142.72;;;2.28;67.64
44697;BME280;57264;47.480;19.354;2023-03-01T01:56:07;100139.47;;;2.46;67.51
44697;BME280;57264;47.480;19.354;2023-03-01T01:58:35;100131.94;;;2.33;67.66
44697;BME280;57264;47.480;19.354;2023-03-01T02:01:01;100128.78;;;2.29;67.18
44697;BME280;57264;47.480;19.354;2023-03-01T02:03:31;100127.34;;;2.46;67.03
44697;BME280;57264;47.480;19.354;2023-03-01T02:08:48;100124.97;;;2.33;67.88
44697;BME280;57264;47.480;19.354;2023-03-01T02:11:15;100122.56;;;2.42;67.64
44697;BME280;57264;47.480;19.354;2023-03-01T02:13:41;100124.47;;;2.40;67.87
44697;BME280;57264;47.480;19.354;2023-03-01T02:16:13;100117.75;;;2.27;68.06
44697;BME280;57264;47.480;19.354;2023-03-01T02:18:41;100127.41;;;2.25;69.25
44697;BME280;57264;47.480;19.354;2023-03-01T02:23:56;100119.13;;;2.31;67.41
44697;BME280;57264;47.480;19.354;2023-03-01T02:26:52;100123.88;;;2.26;68.19
44697;BME280;57264;47.480;19.354;2023-03-01T02:29:21;100117.97;;;2.55;66.87
44697;BME280;57264;47.480;19.354;2023-03-01T02:31:47;100116.59;;;2.51;66.63
44697;BME280;57264;47.480;19.354;2023-03-01T02:34:16;100109.88;;;2.39;66.53
44697;BME280;57264;47.480;19.354;2023-03-01T02:36:47;100102.81;;;2.41;66.30
44697;BME280;57264;47.480;19.354;2023-03-01T02:39:18;100103.84;;;2.38;66.97
44697;BME280;57264;47.480;19.354;2023-03-01T02:41:48;100103.34;;;2.44;67.08
44697;BME280;57264;47.480;19.354;2023-03-01T02:44:15;100099.94;;;2.44;66.82
44697;BME280;57264;47.480;19.354;2023-03-01T02:46:52;100097.66;;;2.60;67.06
44697;BME280;57264;47.480;19.354;2023-03-01T02:49:25;100086.75;;;2.56;66.69
44697;BME280;57264;47.480;19.354;2023-03-01T02:57:13;100081.75;;;2.34;68.27
44697;BME280;57264;47.480;19.354;2023-03-01T02:59:39;100077.53;;;2.33;68.31
44697;BME280;57264;47.480;19.354;2023-03-01T03:02:22;100075.34;;;2.28;68.89
44697;BME280;57264;47.480;19.354;2023-03-01T03:05:39;100078.66;;;2.40;68.78
44697;BME280;57264;47.480;19.354;2023-03-01T03:08:05;100089.13;;;2.39;68.94
44697;BME280;57264;47.480;19.354;2023-03-01T03:10:35;100088.63;;;2.45;68.69
44697;BME280;57264;47.480;19.354;2023-03-01T03:13:05;100094.19;;;2.40;68.57
44697;BME280;57264;47.480;19.354;2023-03-01T03:15:31;100089.13;;;2.39;69.41
44697;BME280;57264;47.480;19.354;2023-03-01T03:17:58;100086.44;;;2.40;68.84
44697;BME280;57264;47.480;19.354;2023-03-01T03:20:27;100093.25;;;2.51;69.08
44697;BME280;57264;47.480;19.354;2023-03-01T03:22:54;100082.50;;;2.65;68.75
44697;BME280;57264;47.480;19.354;2023-03-01T03:25:21;100087.97;;;2.52;69.42
44697;BME280;57264;47.480;19.354;2023-03-01T03:27:49;100084.22;;;2.45;69.01
44697;BME280;57264;47.480;19.354;2023-03-01T03:30:18;100088.34;;;2.48;68.96
44697;BME280;57264;47.480;19.354;2023-03-01T03:32:46;100085.66;;;2.78;67.38
44697;BME280;57264;47.480;19.354;2023-03-01T03:35:26;100089.75;;;2.71;68.15
44697;BME280;57264;47.480;19.354;2023-03-01T03:37:53;100092.34;;;2.71;67.76
44697;BME280;57264;47.480;19.354;2023-03-01T03:40:40;100096.44;;;2.64;68.27
44697;BME280;57264;47.480;19.354;2023-03-01T03:43:23;100092.34;;;2.71;67.87
44697;BME280;57264;47.480;19.354;2023-03-01T03:45:50;100097.94;;;2.66;68.27
44697;BME280;57264;47.480;19.354;2023-03-01T03:48:18;100087.03;;;2.72;67.79
44697;BME280;57264;47.480;19.354;2023-03-01T03:50:51;100083.75;;;2.70;67.32
44697;BME280;57264;47.480;19.354;2023-03-01T03:53:18;100083.56;;;2.43;67.92
44697;BME280;57264;47.480;19.354;2023-03-01T03:55:44;100078.00;;;2.67;67.55
44697;BME280;57264;47.480;19.354;2023-03-01T03:58:10;100083.63;;;2.72;66.93
44697;BME280;57264;47.480;19.354;2023-03-01T04:00:44;100084.16;;;2.66;67.13
44697;BME280;57264;47.480;19.354;2023-03-01T04:03:11;100076.19;;;2.39;67.80
44697;BME280;57264;47.480;19.354;2023-03-01T04:05:38;100081.25;;;2.50;67.77
44697;BME280;57264;47.480;19.354;2023-03-01T04:08:05;100080.00;;;2.34;67.89
44697;BME280;57264;47.480;19.354;2023-03-01T04:10:40;100083.44;;;2.45;67.75
44697;BME280;57264;47.480;19.354;2023-03-01T04:13:08;100085.59;;;2.40;67.46
44697;BME280;57264;47.480;19.354;2023-03-01T04:15:34;100078.09;;;2.46;66.99
44697;BME280;57264;47.480;19.354;2023-03-01T04:18:01;100082.31;;;2.38;67.92
44697;BME280;57264;47.480;19.354;2023-03-01T04:20:31;100089.56;;;2.44;67.63
44697;BME280;57264;47.480;19.354;2023-03-01T04:23:01;100087.66;;;2.46;67.02
44697;BME280;57264;47.480;19.354;2023-03-01T04:25:38;100089.97;;;2.39;67.97
44697;BME280;57264;47.480;19.354;2023-03-01T04:28:04;100079.75;;;2.47;67.07
44697;BME280;57264;47.480;19.354;2023-03-01T04:30:29;100086.50;;;2.29;67.77
44697;BME280;57264;47.480;19.354;2023-03-01T04:33:10;100083.63;;;2.22;68.23
44697;BME280;57264;47.480;19.354;2023-03-01T04:35:37;100080.28;;;2.31;68.27
44697;BME280;57264;47.480;19.354;2023-03-01T04:38:04;100080.13;;;2.33;67.59
44697;BME280;57264;47.480;19.354;2023-03-01T04:40:31;100076.31;;;2.27;68.31
44697;BME280;57264;47.480;19.354;2023-03-01T04:42:56;100075.91;;;2.32;68.15
44697;BME280;57264;47.480;19.354;2023-03-01T04:45:22;100076.31;;;2.27;67.97
44697;BME280;57264;47.480;19.354;2023-03-01T04:47:48;100071.91;;;2.18;68.41
44697;BME280;57264;47.480;19.354;2023-03-01T04:50:16;100070.69;;;2.22;67.92
44697;BME280;57264;47.480;19.354;2023-03-01T04:52:43;100073.03;;;2.35;67.27
44697;BME280;57264;47.480;19.354;2023-03-01T04:55:10;100064.56;;;2.33;67.50
44697;BME280;57264;47.480;19.354;2023-03-01T04:57:37;100066.91;;;2.36;67.69
44697;BME280;57264;47.480;19.354;2023-03-01T05:00:04;100065.00;;;2.38;67.21
44697;BME280;57264;47.480;19.354;2023-03-01T05:02:58;100068.84;;;2.44;67.41
44697;BME280;57264;47.480;19.354;2023-03-01T05:05:38;100071.00;;;2.39;68.00
44697;BME280;57264;47.480;19.354;2023-03-01T05:08:07;100064.44;;;2.34;67.43
44697;BME280;57264;47.480;19.354;2023-03-01T05:10:34;100062.81;;;2.33;67.48
44697;BME280;57264;47.480;19.354;2023-03-01T05:13:01;100059.69;;;2.40;67.91
44697;BME280;57264;47.480;19.354;2023-03-01T05:15:30;100068.13;;;2.42;67.69
44697;BME280;57264;47.480;19.354;2023-03-01T05:17:58;100065.47;;;2.53;67.04
44697;BME280;57264;47.480;19.354;2023-03-01T05:20:29;100076.22;;;2.48;67.30
44697;BME280;57264;47.480;19.354;2023-03-01T05:22:57;100074.56;;;2.47;67.56
44697;BME280;57264;47.480;19.354;2023-03-01T05:25:31;100072.94;;;2.37;68.01
44697;BME280;57264;47.480;19.354;2023-03-01T05:28:02;100080.00;;;2.34;67.91
44697;BME280;57264;47.480;19.354;2023-03-01T05:30:33;100072.09;;;2.46;67.29
44697;BME280;57264;47.480;19.354;2023-03-01T05:33:01;100074.28;;;2.41;67.59
44697;BME280;57264;47.480;19.354;2023-03-01T05:35:35;100082.16;;;2.29;68.09
44697;BME280;57264;47.480;19.354;2023-03-01T05:38:05;100078.63;;;2.30;68.40
44697;BME280;57264;47.480;19.354;2023-03-01T05:40:33;100080.53;;;2.38;68.57
44697;BME280;57264;47.480;19.354;2023-03-01T05:42:59;100083.44;;;2.45;67.82
44697;BME280;57264;47.480;19.354;2023-03-01T05:45:26;100078.66;;;2.40;68.40
44697;BME280;57264;47.480;19.354;2023-03-01T05:47:53;100083.53;;;2.33;68.71
44697;BME280;57264;47.480;19.354;2023-03-01T05:50:23;100082.53;;;2.25;69.31
44697;BME280;57264;47.480;19.354;2023-03-01T05:53:05;100093.94;;;2.43;68.92
44697;BME280;57264;47.480;19.354;2023-03-01T05:55:32;100088.59;;;2.35;69.29
44697;BME280;57264;47.480;19.354;2023-03-01T05:58:00;100086.97;;;2.44;69.01
44697;BME280;57264;47.480;19.354;2023-03-01T06:00:26;100093.88;;;2.33;70.00
44697;BME280;57264;47.480;19.354;2023-03-01T06:02:53;100089.38;;;2.26;70.76
44697;BME280;57264;47.480;19.354;2023-03-01T06:05:19;100081.81;;;2.53;69.02
44697;BME280;57264;47.480;19.354;2023-03-01T06:07:45;100081.97;;;2.71;68.23
44697;BME280;57264;47.480;19.354;2023-03-01T06:10:12;100079.66;;;2.77;68.83
44697;BME280;57264;47.480;19.354;2023-03-01T06:12:40;100077.34;;;2.74;68.90
44697;BME280;57264;47.480;19.354;2023-03-01T06:15:06;100085.81;;;2.96;68.29
44697;BME280;57264;47.480;19.354;2023-03-01T06:17:37;100086.34;;;2.90;68.40
44697;BME280;57264;47.480;19.354;2023-03-01T06:20:05;100092.78;;;2.76;67.55
44697;BME280;57264;47.480;19.354;2023-03-01T06:22:30;100088.84;;;3.01;67.26
44697;BME280;57264;47.480;19.354;2023-03-01T06:24:56;100084.06;;;2.96;67.59
44697;BME280;57264;47.480;19.354;2023-03-01T06:27:21;100090.47;;;2.92;67.11
44697;BME280;57264;47.480;19.354;2023-03-01T06:29:47;100087.19;;;3.19;66.77
44697;BME280;57264;47.480;19.354;2023-03-01T06:32:13;100092.34;;;2.90;66.96
44697;BME280;57264;47.480;19.354;2023-03-01T06:34:39;100094.28;;;2.98;66.94
44697;BME280;57264;47.480;19.354;2023-03-01T06:37:08;100095.09;;;2.89;67.39
44697;BME280;57264;47.480;19.354;2023-03-01T06:39:33;100097.25;;;2.93;68.12
44697;BME280;57264;47.480;19.354;2023-03-01T06:41:59;100094.28;;;3.17;67.24
44697;BME280;57264;47.480;19.354;2023-03-01T06:44:26;100093.19;;;3.19;66.42
44697;BME280;57264;47.480;19.354;2023-03-01T06:46:52;100098.38;;;3.10;66.47
44697;BME280;57264;47.480;19.354;2023-03-01T06:49:17;100091.53;;;3.18;66.45
44697;BME280;57264;47.480;19.354;2023-03-01T06:51:44;100092.34;;;3.38;66.00
44697;BME280;57264;47.480;19.354;2023-03-01T06:54:10;100092.69;;;3.72;65.32
44697;BME280;57264;47.480;19.354;2023-03-01T06:56:35;100092.41;;;3.85;64.00
44697;BME280;57264;47.480;19.354;2023-03-01T06:59:01;100094.28;;;3.92;63.12
44697;BME280;57264;47.480;19.354;2023-03-01T07:01:28;100102.56;;;4.05;62.81
44697;BME280;57264;47.480;19.354;2023-03-01T07:03:54;100097.09;;;4.08;62.97
44697;BME280;57264;47.480;19.354;2023-03-01T07:06:20;100096.59;;;3.95;62.52
44697;BME280;57264;47.480;19.354;2023-03-01T07:08:45;100090.66;;;4.12;62.85
44697;BME280;57264;47.480;19.354;2023-03-01T07:11:11;100089.81;;;4.12;61.92
44697;BME280;57264;47.480;19.354;2023-03-01T07:13:36;100092.41;;;4.12;61.43
44697;BME280;57264;47.480;19.354;2023-03-01T07:16:02;100092.09;;;4.24;61.77
44697;BME280;57264;47.480;19.354;2023-03-01T07:18:27;100088.53;;;4.70;61.24
44697;BME280;57264;47.480;19.354;2023-03-01T07:20:53;100094.56;;;4.71;60.28
44697;BME280;57264;47.480;19.354;2023-03-01T07:23:19;100093.13;;;4.59;59.96
44697;BME280;57264;47.480;19.354;2023-03-01T07:25:54;100089.28;;;4.36;59.67
44697;BME280;57264;47.480;19.354;2023-03-01T07:28:20;100094.34;;;4.82;59.72
44697;BME280;57264;47.480;19.354;2023-03-01T07:30:46;100081.78;;;4.95;58.28
44697;BME280;57264;47.480;19.354;2023-03-01T07:33:11;100086.69;;;4.98;58.91
44697;BME280;57264;47.480;19.354;2023-03-01T07:35:37;100086.31;;;5.29;57.66
44697;BME280;57264;47.480;19.354;2023-03-01T07:38:02;100082.97;;;5.18;56.57
44697;BME280;57264;47.480;19.354;2023-03-01T07:40:28;100090.06;;;5.52;56.34
44697;BME280;57264;47.480;19.354;2023-03-01T07:42:57;100090.56;;;4.94;57.01
44697;BME280;57264;47.480;19.354;2023-03-01T07:45:24;100101.06;;;4.85;56.81
44697;BME280;57264;47.480;19.354;2023-03-01T07:47:51;100089.44;;;4.79;57.24
44697;BME280;57264;47.480;19.354;2023-03-01T07:50:18;100088.84;;;5.03;56.31
44697;BME280;57264;47.480;19.354;2023-03-01T07:52:48;100080.53;;;4.99;56.13
44697;BME280;57264;47.480;19.354;2023-03-01T07:55:15;100086.38;;;5.19;56.18
44697;BME280;57264;47.480;19.354;2023-03-01T07:57:42;100079.53;;;5.18;55.07
44697;BME280;57264;47.480;19.354;2023-03-01T08:00:10;100075.84;;;5.21;55.82
44697;BME280;57264;47.480;19.354;2023-03-01T08:02:36;100077.22;;;5.33;55.68
44697;BME280;57264;47.480;19.354;2023-03-01T08:05:02;100068.97;;;5.63;54.88
44697;BME280;57264;47.480;19.354;2023-03-01T08:07:28;100069.63;;;5.39;55.92
44697;BME280;57264;47.480;19.354;2023-03-01T08:09:54;100080.47;;;5.52;55.20
44697;BME280;57264;47.480;19.354;2023-03-01T08:12:19;100079.16;;;5.82;54.09
44697;BME280;57264;47.480;19.354;2023-03-01T08:14:45;100075.06;;;5.97;53.09
44697;BME280;57264;47.480;19.354;2023-03-01T08:17:13;100070.66;;;5.98;53.39
44697;BME280;57264;47.480;19.354;2023-03-01T08:19:39;100068.09;;;6.06;53.82
44697;BME280;57264;47.480;19.354;2023-03-01T08:22:05;100060.47;;;6.13;52.49
44697;BME280;57264;47.480;19.354;2023-03-01T08:24:30;100063.09;;;6.13;51.76
44697;BME280;57264;47.480;19.354;2023-03-01T08:26:56;100058.47;;;6.06;52.41
44697;BME280;57264;47.480;19.354;2023-03-01T08:29:21;100063.25;;;6.19;52.44
44697;BME280;57264;47.480;19.354;2023-03-01T08:31:48;100061.13;;;6.15;51.53
44697;BME280;57264;47.480;19.354;2023-03-01T08:34:17;100060.00;;;6.17;52.22
44697;BME280;57264;47.480;19.354;2023-03-01T08:36:45;100052.06;;;6.35;52.67
44697;BME280;57264;47.480;19.354;2023-03-01T08:39:14;100061.00;;;6.24;53.43
44697;BME280;57264;47.480;19.354;2023-03-01T08:41:40;100060.91;;;6.50;51.73
44697;BME280;57264;47.480;19.354;2023-03-01T08:44:07;100059.25;;;6.33;52.16
44697;BME280;57264;47.480;19.354;2023-03-01T08:46:37;100058.91;;;6.28;52.92
44697;BME280;57264;47.480;19.354;2023-03-01T08:49:15;100053.66;;;6.20;51.97
44697;BME280;57264;47.480;19.354;2023-03-01T08:51:43;100058.34;;;6.08;53.06
44697;BME280;57264;47.480;19.354;2023-03-01T08:54:17;100053.94;;;6.08;52.97
44697;BME280;57264;47.480;19.354;2023-03-01T08:56:44;100058.03;;;6.19;51.97
44697;BME280;57264;47.480;19.354;2023-03-01T08:59:12;100052.66;;;6.13;52.04
44697;BME280;57264;47.480;19.354;2023-03-01T09:01:39;100049.84;;;6.06;52.77
44697;BME280;57264;47.480;19.354;2023-03-01T09:04:05;100055.63;;;6.18;52.56
44697;BME280;57264;47.480;19.354;2023-03-01T09:06:32;100046.81;;;5.85;53.82
44697;BME280;57264;47.480;19.354;2023-03-01T09:08:58;100045.38;;;5.90;53.94
44697;BME280;57264;47.480;19.354;2023-03-01T09:11:24;100044.91;;;5.95;52.51
44697;BME280;57264;47.480;19.354;2023-03-01T09:13:50;100050.97;;;5.70;54.09
44697;BME280;57264;47.480;19.354;2023-03-01T09:16:18;100047.16;;;5.64;54.39
44697;BME280;57264;47.480;19.354;2023-03-01T09:18:44;100041.16;;;5.89;53.18
44697;BME280;57264;47.480;19.354;2023-03-01T09:21:15;100039.31;;;6.24;53.89
44697;BME280;57264;47.480;19.354;2023-03-01T09:23:45;100018.50;;;6.40;52.88
44697;BME280;57264;47.480;19.354;2023-03-01T09:26:20;100016.59;;;6.42;52.71
44697;BME280;57264;47.480;19.354;2023-03-01T09:28:51;100010.22;;;6.44;52.47
44697;BME280;57264;47.480;19.354;2023-03-01T09:31:19;100009.56;;;6.58;52.41
44697;BME280;57264;47.480;19.354;2023-03-01T09:33:47;100012.88;;;6.85;50.97
44697;BME280;57264;47.480;19.354;2023-03-01T09:36:19;100001.47;;;6.70;49.96
44697;BME280;57264;47.480;19.354;2023-03-01T09:38:46;100002.59;;;6.67;51.71
44697;BME280;57264;47.480;19.354;2023-03-01T09:47:02;99988.41;;;6.62;51.71
44697;BME280;57264;47.480;19.354;2023-03-01T09:49:31;99991.50;;;6.65;51.69
44697;BME280;57264;47.480;19.354;2023-03-01T09:54:51;100000.31;;;6.80;50.86
44697;BME280;57264;47.480;19.354;2023-03-01T09:57:20;99994.75;;;6.99;49.93
44697;BME280;57264;47.480;19.354;2023-03-01T10:02:58;99993.28;;;7.21;50.44
44697;BME280;57264;47.480;19.354;2023-03-01T10:08:24;99986.72;;;7.41;49.54
44697;BME280;57264;47.480;19.354;2023-03-01T10:10:52;99983.94;;;7.35;50.64
44697;BME280;57264;47.480;19.354;2023-03-01T10:13:42;99975.47;;;7.33;48.90
44697;BME280;57264;47.480;19.354;2023-03-01T10:19:00;99971.91;;;7.26;51.61
44697;BME280;57264;47.480;19.354;2023-03-01T10:21:28;99963.88;;;7.35;50.20
44697;BME280;57264;47.480;19.354;2023-03-01T10:24:08;99966.31;;;7.37;50.55
44697;BME280;57264;47.480;19.354;2023-03-01T10:26:46;99964.06;;;7.26;50.28
44697;BME280;57264;47.480;19.354;2023-03-01T10:29:13;99966.97;;;7.31;50.03
44697;BME280;57264;47.480;19.354;2023-03-01T10:31:47;99955.91;;;7.29;49.39
44697;BME280;57264;47.480;19.354;2023-03-01T10:36:42;99949.84;;;7.36;49.88
44697;BME280;57264;47.480;19.354;2023-03-01T10:39:18;99949.13;;;7.50;50.35
44697;BME280;57264;47.480;19.354;2023-03-01T10:42:22;99940.50;;;7.50;50.66
44697;BME280;57264;47.480;19.354;2023-03-01T10:44:50;99935.88;;;7.60;48.92
44697;BME280;57264;47.480;19.354;2023-03-01T10:47:20;99937.88;;;7.58;49.86
44697;BME280;57264;47.480;19.354;2023-03-01T10:50:02;99938.16;;;7.63;49.36
44697;BME280;57264;47.480;19.354;2023-03-01T10:52:59;99932.34;;;7.84;49.50
44697;BME280;57264;47.480;19.354;2023-03-01T11:00:33;99918.50;;;7.75;48.52
44697;BME280;57264;47.480;19.354;2023-03-01T11:03:13;99919.13;;;7.85;49.63
44697;BME280;57264;47.480;19.354;2023-03-01T11:06:00;99916.91;;;7.74;49.07
44697;BME280;57264;47.480;19.354;2023-03-01T11:08:45;99921.84;;;7.92;48.82
44697;BME280;57264;47.480;19.354;2023-03-01T11:14:15;99901.59;;;7.94;49.23
44697;BME280;57264;47.480;19.354;2023-03-01T11:16:44;99897.06;;;8.11;49.17
44697;BME280;57264;47.480;19.354;2023-03-01T11:21:47;99899.16;;;8.15;49.29
44697;BME280;57264;47.480;19.354;2023-03-01T11:24:16;99895.25;;;8.11;48.77
44697;BME280;57264;47.480;19.354;2023-03-01T11:26:47;99893.72;;;8.25;48.16
44697;BME280;57264;47.480;19.354;2023-03-01T11:29:40;99885.94;;;8.39;50.04
44697;BME280;57264;47.480;19.354;2023-03-01T11:32:09;99884.44;;;8.45;49.97
44697;BME280;57264;47.480;19.354;2023-03-01T11:37:36;99880.47;;;8.49;49.23
44697;BME280;57264;47.480;19.354;2023-03-01T11:40:12;99894.19;;;8.51;49.09
44697;BME280;57264;47.480;19.354;2023-03-01T11:45:52;99888.00;;;8.67;48.53
44697;BME280;57264;47.480;19.354;2023-03-01T11:51:16;99882.75;;;8.67;49.56
44697;BME280;57264;47.480;19.354;2023-03-01T11:54:28;99881.09;;;8.74;50.62
44697;BME280;57264;47.480;19.354;2023-03-01T11:56:57;99871.16;;;8.69;50.08
44697;BME280;57264;47.480;19.354;2023-03-01T12:11:01;99859.53;;;8.86;51.47
44697;BME280;57264;47.480;19.354;2023-03-01T12:37:03;99833.78;;;9.05;49.64
44697;BME280;57264;47.480;19.354;2023-03-01T12:45:38;99829.34;;;9.20;51.46
44697;BME280;57264;47.480;19.354;2023-03-01T12:51:11;99815.19;;;9.14;51.01
44697;BME280;57264;47.480;19.354;2023-03-01T12:53:46;99809.38;;;9.19;52.02
44697;BME280;57264;47.480;19.354;2023-03-01T12:56:17;99810.31;;;9.11;51.13
44697;BME280;57264;47.480;19.354;2023-03-01T13:01:36;99802.56;;;9.18;51.51
44697;BME280;57264;47.480;19.354;2023-03-01T13:07:04;99806.16;;;9.17;51.85
44697;BME280;57264;47.480;19.354;2023-03-01T13:09:44;99804.16;;;9.33;51.71
44697;BME280;57264;47.480;19.354;2023-03-01T13:15:40;99798.28;;;9.17;52.12
44697;BME280;57264;47.480;19.354;2023-03-01T13:23:29;99801.09;;;9.30;53.10
44697;BME280;57264;47.480;19.354;2023-03-01T13:26:15;99792.69;;;9.34;53.59
44697;BME280;57264;47.480;19.354;2023-03-01T13:31:55;99784.00;;;9.19;51.69
44697;BME280;57264;47.480;19.354;2023-03-01T13:34:00;99780.41;;;9.20;51.70
44697;BME280;57264;47.480;19.354;2023-03-01T13:38:57;99780.03;;;9.23;54.05
44697;BME280;57264;47.480;19.354;2023-03-01T13:46:56;99776.50;;;9.31;51.16
44697;BME280;57264;47.480;19.354;2023-03-01T13:49:27;99772.47;;;9.14;51.09
44697;BME280;57264;47.480;19.354;2023-03-01T13:51:54;99764.19;;;9.10;51.26
44697;BME280;57264;47.480;19.354;2023-03-01T13:54:33;99766.75;;;9.25;52.85
44697;BME280;57264;47.480;19.354;2023-03-01T13:57:00;99759.88;;;9.38;52.18
44697;BME280;57264;47.480;19.354;2023-03-01T13:59:26;99757.31;;;9.45;52.12
44697;BME280;57264;47.480;19.354;2023-03-01T14:02:00;99758.94;;;9.46;50.45
44697;BME280;57264;47.480;19.354;2023-03-01T14:04:32;99756.22;;;9.39;51.46
44697;BME280;57264;47.480;19.354;2023-03-01T14:07:19;99749.75;;;9.35;50.97
44697;BME280;57264;47.480;19.354;2023-03-01T14:09:47;99747.31;;;9.34;51.26
44697;BME280;57264;47.480;19.354;2023-03-01T14:12:44;99734.56;;;9.31;51.16
44697;BME280;57264;47.480;19.354;2023-03-01T14:16:27;99734.50;;;9.24;52.37
44697;BME280;57264;47.480;19.354;2023-03-01T14:21:18;99724.84;;;9.25;51.54
44697;BME280;57264;47.480;19.354;2023-03-01T14:23:44;99717.25;;;9.30;51.63
44697;BME280;57264;47.480;19.354;2023-03-01T14:26:12;99722.50;;;9.30;51.67
44697;BME280;57264;47.480;19.354;2023-03-01T14:28:38;99727.97;;;9.14;51.97
44697;BME280;57264;47.480;19.354;2023-03-01T14:34:19;99714.75;;;9.22;52.07
44697;BME280;57264;47.480;19.354;2023-03-01T14:36:46;99713.19;;;9.27;51.13
44697;BME280;57264;47.480;19.354;2023-03-01T14:39:25;99717.16;;;9.23;51.08
44697;BME280;57264;47.480;19.354;2023-03-01T14:41:52;99703.72;;;9.26;51.72
44697;BME280;57264;47.480;19.354;2023-03-01T14:44:23;99703.13;;;9.10;51.58
44697;BME280;57264;47.480;19.354;2023-03-01T14:46:55;99699.75;;;9.16;51.07
44697;BME280;57264;47.480;19.354;2023-03-01T14:49:25;99701.00;;;9.20;51.38
44697;BME280;57264;47.480;19.354;2023-03-01T14:57:03;99695.88;;;9.12;50.90
44697;BME280;57264;47.480;19.354;2023-03-01T14:59:29;99696.53;;;9.14;51.19
44697;BME280;57264;47.480;19.354;2023-03-01T15:01:57;99700.75;;;9.15;50.74
44697;BME280;57264;47.480;19.354;2023-03-01T15:04:24;99701.50;;;9.09;51.56
44697;BME280;57264;47.480;19.354;2023-03-01T15:06:53;99699.69;;;9.09;51.40
44697;BME280;57264;47.480;19.354;2023-03-01T15:09:19;99689.88;;;8.97;51.17
44697;BME280;57264;47.480;19.354;2023-03-01T15:11:46;99694.63;;;9.08;51.83
44697;BME280;57264;47.480;19.354;2023-03-01T15:14:41;99699.69;;;9.09;50.71
44697;BME280;57264;47.480;19.354;2023-03-01T15:17:23;99689.16;;;9.03;51.74
44697;BME280;57264;47.480;19.354;2023-03-01T15:19:52;99692.97;;;8.85;51.86
44697;BME280;57264;47.480;19.354;2023-03-01T15:22:17;99691.25;;;8.92;51.65